createdAt,value
2018-07-06T00:00:09.831Z,0.00
2018-07-06T00:01:09.903Z,0.00
2018-07-06T00:02:09.959Z,0.00
2018-07-06T00:03:10.019Z,0.00
2018-07-06T00:04:10.107Z,0.00
2018-07-06T00:05:10.151Z,0.00
2018-07-06T00:06:10.211Z,0.00
2018-07-06T00:07:10.283Z,0.00
2018-07-06T00:08:10.347Z,0.00
2018-07-06T00:09:10.423Z,0.00
2018-07-06T00:10:10.487Z,0.00
2018-07-06T00:11:10.572Z,0.00
2018-07-06T00:12:10.611Z,0.00
2018-07-06T00:13:10.675Z,0.00
2018-07-06T00:14:10.748Z,0.00
2018-07-06T00:15:10.815Z,0.00
2018-07-06T00:16:10.871Z,0.00
2018-07-06T00:17:10.939Z,0.00
2018-07-06T00:18:11.003Z,0.00
2018-07-06T00:19:11.176Z,0.00
2018-07-06T00:20:11.140Z,0.00
2018-07-06T00:21:11.208Z,0.00
2018-07-06T00:22:11.268Z,0.00
2018-07-06T00:23:11.331Z,0.00
2018-07-06T00:24:11.404Z,0.00
2018-07-06T00:25:11.472Z,0.00
2018-07-06T00:26:11.528Z,0.00
2018-07-06T00:27:11.596Z,0.00
2018-07-06T00:28:11.664Z,0.00
2018-07-06T00:29:11.732Z,0.00
2018-07-06T00:30:11.796Z,0.00
2018-07-06T00:31:11.856Z,0.00
2018-07-06T00:32:11.928Z,0.00
2018-07-06T00:33:11.984Z,0.00
2018-07-06T00:34:12.060Z,0.00
2018-07-06T00:35:12.137Z,0.00
2018-07-06T00:36:12.185Z,0.00
2018-07-06T00:37:12.248Z,0.00
2018-07-06T00:38:12.316Z,0.00
2018-07-06T00:39:12.392Z,0.00
2018-07-06T00:40:12.452Z,0.00
2018-07-06T00:41:12.652Z,0.00
2018-07-06T00:42:12.576Z,0.00
2018-07-06T00:43:12.644Z,0.00
2018-07-06T00:44:12.733Z,0.00
2018-07-06T00:45:12.780Z,0.00
2018-07-06T00:46:12.841Z,0.00
2018-07-06T00:47:12.905Z,0.00
2018-07-06T00:48:12.973Z,0.00
2018-07-06T00:49:13.049Z,0.00
2018-07-06T00:50:13.113Z,0.00
2018-07-06T00:51:13.165Z,0.00
2018-07-06T00:52:13.237Z,0.00
2018-07-06T00:53:13.296Z,0.00
2018-07-06T00:54:13.481Z,0.00
2018-07-06T00:55:13.429Z,0.00
2018-07-06T00:56:13.493Z,0.00
2018-07-06T00:57:13.557Z,0.00
2018-07-06T00:58:13.625Z,0.00
2018-07-06T00:59:13.697Z,0.00
2018-07-06T01:00:13.761Z,0.00
2018-07-06T01:01:13.824Z,0.00
2018-07-06T01:02:13.886Z,0.00
2018-07-06T01:03:13.957Z,0.00
2018-07-06T01:04:14.026Z,0.00
2018-07-06T01:05:14.094Z,0.00
2018-07-06T01:06:14.141Z,0.00
2018-07-06T01:07:14.221Z,0.00
2018-07-06T01:08:14.278Z,0.00
2018-07-06T01:09:14.654Z,0.00
2018-07-06T01:10:14.540Z,0.00
2018-07-06T01:11:14.474Z,0.00
2018-07-06T01:12:14.537Z,0.00
2018-07-06T01:13:14.608Z,0.00
2018-07-06T01:14:14.679Z,0.00
2018-07-06T01:15:14.742Z,0.00
2018-07-06T01:16:14.806Z,0.00
2018-07-06T01:17:14.890Z,0.00
2018-07-06T01:18:14.930Z,0.00
2018-07-06T01:19:15.003Z,0.00
2018-07-06T01:20:15.066Z,0.00
2018-07-06T01:21:15.127Z,0.00
2018-07-06T01:22:15.190Z,0.00
2018-07-06T01:23:15.259Z,0.00
2018-07-06T01:24:15.482Z,0.00
2018-07-06T01:25:15.386Z,0.00
2018-07-06T01:26:15.461Z,0.00
2018-07-06T01:27:15.518Z,0.00
2018-07-06T01:28:15.583Z,0.00
2018-07-06T01:29:15.655Z,0.00
2018-07-06T01:30:15.718Z,0.00
2018-07-06T01:31:15.779Z,0.00
2018-07-06T01:32:15.842Z,0.00
2018-07-06T01:33:15.910Z,0.00
2018-07-06T01:34:15.983Z,0.00
2018-07-06T01:35:16.051Z,0.00
2018-07-06T01:36:16.103Z,0.00
2018-07-06T01:37:16.171Z,0.00
2018-07-06T01:38:16.242Z,0.00
2018-07-06T01:39:16.299Z,0.00
2018-07-06T01:40:16.396Z,0.00
2018-07-06T01:41:16.431Z,0.00
2018-07-06T01:42:16.495Z,0.00
2018-07-06T01:43:16.563Z,0.00
2018-07-06T01:44:16.627Z,0.00
2018-07-06T01:45:16.699Z,0.00
2018-07-06T01:46:16.764Z,0.00
2018-07-06T01:47:16.826Z,0.00
2018-07-06T01:48:16.888Z,0.00
2018-07-06T01:49:16.953Z,0.00
2018-07-06T01:50:17.024Z,0.00
2018-07-06T01:51:17.088Z,0.00
2018-07-06T01:52:17.148Z,0.00
2018-07-06T01:53:17.212Z,0.00
2018-07-06T01:54:17.280Z,0.00
2018-07-06T01:55:17.604Z,0.00
2018-07-06T01:56:17.408Z,0.00
2018-07-06T01:57:17.476Z,0.00
2018-07-06T01:58:17.536Z,0.00
2018-07-06T01:59:17.604Z,0.00
2018-07-06T02:00:17.678Z,0.00
2018-07-06T02:01:17.740Z,0.00
2018-07-06T02:02:17.796Z,0.00
2018-07-06T02:03:17.860Z,0.00
2018-07-06T02:04:17.933Z,0.00
2018-07-06T02:05:18.000Z,0.00
2018-07-06T02:06:18.065Z,0.00
2018-07-06T02:07:18.129Z,0.00
2018-07-06T02:08:18.197Z,0.00
2018-07-06T02:09:18.252Z,0.00
2018-07-06T02:10:18.340Z,0.00
2018-07-06T02:11:18.384Z,0.00
2018-07-06T02:12:18.461Z,0.00
2018-07-06T02:13:18.517Z,0.00
2018-07-06T02:14:18.577Z,0.00
2018-07-06T02:15:18.653Z,0.00
2018-07-06T02:16:18.729Z,0.00
2018-07-06T02:17:18.773Z,0.00
2018-07-06T02:18:18.837Z,0.00
2018-07-06T02:19:18.905Z,0.00
2018-07-06T02:20:18.974Z,0.00
2018-07-06T02:21:19.045Z,0.00
2018-07-06T02:22:19.097Z,0.00
2018-07-06T02:23:19.173Z,0.00
2018-07-06T02:24:19.229Z,0.00
2018-07-06T02:25:19.293Z,0.00
2018-07-06T02:26:19.473Z,0.00
2018-07-06T02:27:19.429Z,0.00
2018-07-06T02:28:19.490Z,0.00
2018-07-06T02:29:19.557Z,0.00
2018-07-06T02:30:19.621Z,0.00
2018-07-06T02:31:19.730Z,0.00
2018-07-06T02:32:19.754Z,0.00
2018-07-06T02:33:19.814Z,0.00
2018-07-06T02:34:19.878Z,0.00
2018-07-06T02:35:19.945Z,0.00
2018-07-06T02:36:20.018Z,0.00
2018-07-06T02:37:20.082Z,0.00
2018-07-06T02:38:20.141Z,0.00
2018-07-06T02:39:20.201Z,0.00
2018-07-06T02:40:20.266Z,0.00
2018-07-06T02:41:20.342Z,0.00
2018-07-06T02:42:20.402Z,0.00
2018-07-06T02:43:20.466Z,0.00
2018-07-06T02:44:20.539Z,0.00
2018-07-06T02:45:20.597Z,4.00
2018-07-06T02:46:20.674Z,4.00
2018-07-06T02:47:20.730Z,0.00
2018-07-06T02:48:20.782Z,4.00
2018-07-06T02:49:20.854Z,4.00
2018-07-06T02:50:20.919Z,0.00
2018-07-06T02:51:20.986Z,4.00
2018-07-06T02:52:21.050Z,4.00
2018-07-06T02:53:21.113Z,4.00
2018-07-06T02:54:21.175Z,4.00
2018-07-06T02:55:21.247Z,4.00
2018-07-06T02:56:21.418Z,4.00
2018-07-06T02:57:21.371Z,8.00
2018-07-06T02:58:21.435Z,8.00
2018-07-06T02:59:21.503Z,8.00
2018-07-06T03:00:21.563Z,8.00
2018-07-06T03:01:21.634Z,8.00
2018-07-06T03:02:21.711Z,12.00
2018-07-06T03:03:21.762Z,12.00
2018-07-06T03:04:21.827Z,12.00
2018-07-06T03:05:21.894Z,16.00
2018-07-06T03:06:21.959Z,20.00
2018-07-06T03:07:22.026Z,20.00
2018-07-06T03:08:22.083Z,24.00
2018-07-06T03:09:22.147Z,24.00
2018-07-06T03:10:22.216Z,28.00
2018-07-06T03:11:22.431Z,32.00
2018-07-06T03:12:22.343Z,36.00
2018-07-06T03:13:22.410Z,36.00
2018-07-06T03:14:22.471Z,44.00
2018-07-06T03:15:22.547Z,44.00
2018-07-06T03:16:22.607Z,48.00
2018-07-06T03:17:22.675Z,52.00
2018-07-06T03:18:22.731Z,60.00
2018-07-06T03:19:22.795Z,68.00
2018-07-06T03:20:22.860Z,68.00
2018-07-06T03:21:22.935Z,76.00
2018-07-06T03:22:23.008Z,80.00
2018-07-06T03:23:23.085Z,88.00
2018-07-06T03:24:23.139Z,92.00
2018-07-06T03:25:23.196Z,100.00
2018-07-06T03:26:23.472Z,112.00
2018-07-06T03:27:23.336Z,116.00
2018-07-06T03:28:23.493Z,128.00
2018-07-06T03:29:23.444Z,136.00
2018-07-06T03:30:23.511Z,144.00
2018-07-06T03:31:23.580Z,156.00
2018-07-06T03:32:23.647Z,168.00
2018-07-06T03:33:23.707Z,180.00
2018-07-06T03:34:23.772Z,192.00
2018-07-06T03:35:23.837Z,200.00
2018-07-06T03:36:23.920Z,212.00
2018-07-06T03:37:23.968Z,228.00
2018-07-06T03:38:24.028Z,244.00
2018-07-06T03:39:24.091Z,252.00
2018-07-06T03:40:24.160Z,272.00
2018-07-06T03:41:24.528Z,288.00
2018-07-06T03:42:24.288Z,300.00
2018-07-06T03:43:24.352Z,316.00
2018-07-06T03:44:24.416Z,332.00
2018-07-06T03:45:24.480Z,344.00
2018-07-06T03:46:24.553Z,360.00
2018-07-06T03:47:24.616Z,376.00
2018-07-06T03:48:24.677Z,392.00
2018-07-06T03:49:24.740Z,408.00
2018-07-06T03:50:24.805Z,424.00
2018-07-06T03:51:24.904Z,444.00
2018-07-06T03:52:24.941Z,464.00
2018-07-06T03:53:25.001Z,484.00
2018-07-06T03:54:25.064Z,504.00
2018-07-06T03:55:25.129Z,528.00
2018-07-06T03:56:25.243Z,548.00
2018-07-06T03:57:25.261Z,572.00
2018-07-06T03:58:25.325Z,592.00
2018-07-06T03:59:25.389Z,612.00
2018-07-06T04:00:25.453Z,632.00
2018-07-06T04:01:25.545Z,660.00
2018-07-06T04:02:25.589Z,688.00
2018-07-06T04:03:25.653Z,724.00
2018-07-06T04:04:25.713Z,752.00
2018-07-06T04:05:25.777Z,792.00
2018-07-06T04:06:25.869Z,828.00
2018-07-06T04:07:25.913Z,860.00
2018-07-06T04:08:25.973Z,900.00
2018-07-06T04:09:26.044Z,940.00
2018-07-06T04:10:26.101Z,980.00
2018-07-06T04:11:26.165Z,1020.00
2018-07-06T04:12:26.365Z,1052.00
2018-07-06T04:13:26.302Z,1076.00
2018-07-06T04:14:26.361Z,1100.00
2018-07-06T04:15:26.426Z,1128.00
2018-07-06T04:16:26.490Z,1152.00
2018-07-06T04:17:26.566Z,1156.00
2018-07-06T04:18:26.633Z,1144.00
2018-07-06T04:19:26.685Z,1136.00
2018-07-06T04:20:26.750Z,1128.00
2018-07-06T04:21:26.814Z,1136.00
2018-07-06T04:22:26.902Z,1140.00
2018-07-06T04:23:26.954Z,1148.00
2018-07-06T04:24:27.026Z,1160.00
2018-07-06T04:25:27.074Z,1180.00
2018-07-06T04:26:27.195Z,1196.00
2018-07-06T04:27:27.227Z,1208.00
2018-07-06T04:28:27.272Z,1220.00
2018-07-06T04:29:27.334Z,1244.00
2018-07-06T04:30:27.403Z,1268.00
2018-07-06T04:31:27.466Z,1292.00
2018-07-06T04:32:27.538Z,1320.00
2018-07-06T04:33:27.614Z,1352.00
2018-07-06T04:34:27.666Z,1384.00
2018-07-06T04:35:27.726Z,1408.00
2018-07-06T04:36:27.811Z,1436.00
2018-07-06T04:37:27.882Z,1464.00
2018-07-06T04:38:27.927Z,1492.00
2018-07-06T04:39:27.987Z,1524.00
2018-07-06T04:40:28.047Z,1560.00
2018-07-06T04:41:28.115Z,1612.00
2018-07-06T04:42:28.194Z,1664.00
2018-07-06T04:43:28.407Z,1696.00
2018-07-06T04:44:28.311Z,1716.00
2018-07-06T04:45:28.375Z,1748.00
2018-07-06T04:46:28.439Z,1800.00
2018-07-06T04:47:28.499Z,1860.00
2018-07-06T04:48:28.576Z,1928.00
2018-07-06T04:49:28.639Z,1980.00
2018-07-06T04:50:28.699Z,2020.00
2018-07-06T04:51:28.763Z,2040.00
2018-07-06T04:52:28.839Z,2080.00
2018-07-06T04:53:28.899Z,2100.00
2018-07-06T04:54:28.967Z,2116.00
2018-07-06T04:55:29.024Z,2132.00
2018-07-06T04:56:29.087Z,2152.00
2018-07-06T04:57:29.175Z,2176.00
2018-07-06T04:58:29.400Z,2204.00
2018-07-06T04:59:29.284Z,2260.00
2018-07-06T05:00:29.350Z,2316.00
2018-07-06T05:01:29.416Z,2360.00
2018-07-06T05:02:29.500Z,2412.00
2018-07-06T05:03:29.557Z,2488.00
2018-07-06T05:04:29.615Z,2572.00
2018-07-06T05:05:29.676Z,2620.00
2018-07-06T05:06:29.742Z,2672.00
2018-07-06T05:07:29.816Z,2760.00
2018-07-06T05:08:29.876Z,2920.00
2018-07-06T05:09:29.940Z,3076.00
2018-07-06T05:10:30.000Z,3216.00
2018-07-06T05:11:30.068Z,3320.00
2018-07-06T05:12:30.132Z,3364.00
2018-07-06T05:13:30.360Z,3404.00
2018-07-06T05:14:30.262Z,3544.00
2018-07-06T05:15:30.329Z,3568.00
2018-07-06T05:16:30.412Z,3772.00
2018-07-06T05:17:30.456Z,3964.00
2018-07-06T05:18:30.529Z,3960.00
2018-07-06T05:19:30.597Z,4016.00
2018-07-06T05:20:30.654Z,4116.00
2018-07-06T05:21:30.716Z,4112.00
2018-07-06T05:22:30.797Z,4260.00
2018-07-06T05:23:30.857Z,4460.00
2018-07-06T05:24:30.921Z,4484.00
2018-07-06T05:25:30.980Z,4432.00
2018-07-06T05:26:31.045Z,3768.00
2018-07-06T05:27:31.113Z,3072.00
2018-07-06T05:28:31.177Z,2824.00
2018-07-06T05:29:31.262Z,2560.00
2018-07-06T05:30:31.309Z,2336.00
2018-07-06T05:31:31.373Z,2244.00
2018-07-06T05:32:31.438Z,2204.00
2018-07-06T05:33:31.529Z,2148.00
2018-07-06T05:34:31.577Z,2116.00
2018-07-06T05:35:31.645Z,1908.00
2018-07-06T05:36:31.701Z,1824.00
2018-07-06T05:37:31.766Z,1788.00
2018-07-06T05:38:31.847Z,1676.00
2018-07-06T05:39:31.906Z,1568.00
2018-07-06T05:40:31.974Z,1388.00
2018-07-06T05:41:32.033Z,1292.00
2018-07-06T05:42:32.094Z,1380.00
2018-07-06T05:43:32.162Z,1532.00
2018-07-06T05:44:32.474Z,1720.00
2018-07-06T05:45:32.290Z,1804.00
2018-07-06T05:46:32.359Z,1800.00
2018-07-06T05:47:32.423Z,1716.00
2018-07-06T05:48:32.518Z,1644.00
2018-07-06T05:49:32.566Z,1576.00
2018-07-06T05:50:32.630Z,1588.00
2018-07-06T05:51:32.690Z,1684.00
2018-07-06T05:52:32.750Z,1708.00
2018-07-06T05:53:32.830Z,1744.00
2018-07-06T05:54:32.891Z,1716.00
2018-07-06T05:55:32.954Z,1640.00
2018-07-06T05:56:33.015Z,1576.00
2018-07-06T05:57:33.079Z,1508.00
2018-07-06T05:58:33.155Z,1440.00
2018-07-06T05:59:33.370Z,1412.00
2018-07-06T06:00:33.275Z,1444.00
2018-07-06T06:01:33.343Z,1436.00
2018-07-06T06:02:33.425Z,1420.00
2018-07-06T06:03:33.471Z,1432.00
2018-07-06T06:04:33.576Z,1488.00
2018-07-06T06:05:33.611Z,1520.00
2018-07-06T06:06:33.667Z,1496.00
2018-07-06T06:07:33.736Z,1496.00
2018-07-06T06:08:33.799Z,1564.00
2018-07-06T06:09:33.871Z,1616.00
2018-07-06T06:10:33.939Z,1668.00
2018-07-06T06:11:33.995Z,1720.00
2018-07-06T06:12:34.065Z,1820.00
2018-07-06T06:13:34.128Z,1744.00
2018-07-06T06:14:34.191Z,1672.00
2018-07-06T06:15:34.420Z,1580.00
2018-07-06T06:16:34.323Z,1512.00
2018-07-06T06:17:34.388Z,1520.00
2018-07-06T06:18:34.536Z,1464.00
2018-07-06T06:19:34.520Z,1512.00
2018-07-06T06:20:34.595Z,1624.00
2018-07-06T06:21:34.660Z,1640.00
2018-07-06T06:22:34.716Z,1560.00
2018-07-06T06:23:34.784Z,1532.00
2018-07-06T06:24:34.864Z,1540.00
2018-07-06T06:25:34.920Z,1560.00
2018-07-06T06:26:34.992Z,1680.00
2018-07-06T06:27:35.044Z,1872.00
2018-07-06T06:28:35.108Z,1968.00
2018-07-06T06:29:35.188Z,2136.00
2018-07-06T06:30:35.425Z,2528.00
2018-07-06T06:31:35.308Z,2104.00
2018-07-06T06:32:35.372Z,2092.00
2018-07-06T06:33:35.517Z,2124.00
2018-07-06T06:34:35.517Z,2168.00
2018-07-06T06:35:35.572Z,2172.00
2018-07-06T06:36:35.640Z,2176.00
2018-07-06T06:37:35.697Z,2188.00
2018-07-06T06:38:35.777Z,2228.00
2018-07-06T06:39:35.848Z,2260.00
2018-07-06T06:40:35.901Z,2204.00
2018-07-06T06:41:35.973Z,2160.00
2018-07-06T06:42:36.025Z,2204.00
2018-07-06T06:43:36.093Z,2316.00
2018-07-06T06:44:36.184Z,2464.00
2018-07-06T06:45:36.385Z,2656.00
2018-07-06T06:46:36.298Z,2776.00
2018-07-06T06:47:36.353Z,2676.00
2018-07-06T06:48:36.421Z,2716.00
2018-07-06T06:49:36.485Z,2848.00
2018-07-06T06:50:36.557Z,2936.00
2018-07-06T06:51:36.625Z,3008.00
2018-07-06T06:52:36.681Z,3188.00
2018-07-06T06:53:36.750Z,3620.00
2018-07-06T06:54:36.816Z,4568.00
2018-07-06T06:55:36.893Z,5356.00
2018-07-06T06:56:36.957Z,4836.00
2018-07-06T06:57:37.015Z,4516.00
2018-07-06T06:58:37.077Z,5036.00
2018-07-06T06:59:37.152Z,5524.00
2018-07-06T07:00:37.325Z,5656.00
2018-07-06T07:01:37.280Z,5340.00
2018-07-06T07:02:37.350Z,5228.00
2018-07-06T07:03:37.414Z,5692.00
2018-07-06T07:04:37.482Z,5760.00
2018-07-06T07:05:37.550Z,5184.00
2018-07-06T07:06:37.618Z,4868.00
2018-07-06T07:07:37.810Z,4744.00
2018-07-06T07:08:37.741Z,4904.00
2018-07-06T07:09:37.810Z,4700.00
2018-07-06T07:10:37.894Z,4092.00
2018-07-06T07:11:37.950Z,3928.00
2018-07-06T07:12:38.006Z,4252.00
2018-07-06T07:13:38.159Z,4828.00
2018-07-06T07:14:38.142Z,5124.00
2018-07-06T07:15:38.261Z,4396.00
2018-07-06T07:16:38.278Z,4052.00
2018-07-06T07:17:38.343Z,4016.00
2018-07-06T07:18:38.413Z,4012.00
2018-07-06T07:19:38.475Z,4012.00
2018-07-06T07:20:38.562Z,4112.00
2018-07-06T07:21:38.614Z,4480.00
2018-07-06T07:22:38.674Z,3432.00
2018-07-06T07:23:38.747Z,3492.00
2018-07-06T07:24:38.810Z,3904.00
2018-07-06T07:25:38.894Z,4276.00
2018-07-06T07:26:38.951Z,4480.00
2018-07-06T07:27:39.010Z,4860.00
2018-07-06T07:28:39.079Z,5084.00
2018-07-06T07:29:39.143Z,4740.00
2018-07-06T07:30:39.259Z,4660.00
2018-07-06T07:31:39.276Z,4780.00
2018-07-06T07:32:39.348Z,4364.00
2018-07-06T07:33:39.410Z,4436.00
2018-07-06T07:34:39.479Z,4756.00
2018-07-06T07:35:39.551Z,4736.00
2018-07-06T07:36:39.624Z,4752.00
2018-07-06T07:37:39.679Z,4596.00
2018-07-06T07:38:39.747Z,4720.00
2018-07-06T07:39:39.811Z,4860.00
2018-07-06T07:40:39.887Z,5020.00
2018-07-06T07:41:39.952Z,4784.00
2018-07-06T07:42:40.016Z,4676.00
2018-07-06T07:43:40.080Z,4544.00
2018-07-06T07:44:40.147Z,4440.00
2018-07-06T07:45:40.267Z,4604.00
2018-07-06T07:46:40.288Z,4772.00
2018-07-06T07:47:40.352Z,4600.00
2018-07-06T07:48:40.416Z,4512.00
2018-07-06T07:49:40.484Z,4252.00
2018-07-06T07:50:40.560Z,4568.00
2018-07-06T07:51:40.632Z,6788.00
2018-07-06T07:52:40.689Z,4636.00
2018-07-06T07:53:40.756Z,4088.00
2018-07-06T07:54:40.911Z,3720.00
2018-07-06T07:55:40.897Z,3556.00
2018-07-06T07:56:40.973Z,3400.00
2018-07-06T07:57:41.027Z,3412.00
2018-07-06T07:58:41.092Z,3580.00
2018-07-06T07:59:41.161Z,3872.00
2018-07-06T08:00:41.489Z,4184.00
2018-07-06T08:01:41.293Z,3864.00
2018-07-06T08:02:41.361Z,4096.00
2018-07-06T08:03:41.429Z,4120.00
2018-07-06T08:04:41.497Z,3744.00
2018-07-06T08:05:41.586Z,3756.00
2018-07-06T08:06:41.666Z,3896.00
2018-07-06T08:07:41.701Z,4416.00
2018-07-06T08:08:41.765Z,4864.00
2018-07-06T08:09:41.833Z,5228.00
2018-07-06T08:10:41.909Z,5764.00
2018-07-06T08:11:42.017Z,6160.00
2018-07-06T08:12:42.033Z,5304.00
2018-07-06T08:13:42.101Z,4796.00
2018-07-06T08:14:42.170Z,4084.00
2018-07-06T08:15:42.261Z,3572.00
2018-07-06T08:16:42.305Z,3344.00
2018-07-06T08:17:42.381Z,3176.00
2018-07-06T08:18:42.442Z,3240.00
2018-07-06T08:19:42.505Z,3492.00
2018-07-06T08:20:42.581Z,3676.00
2018-07-06T08:21:42.649Z,3536.00
2018-07-06T08:22:42.725Z,3380.00
2018-07-06T08:23:42.777Z,3244.00
2018-07-06T08:24:42.841Z,3164.00
2018-07-06T08:25:42.917Z,3104.00
2018-07-06T08:26:42.986Z,3028.00
2018-07-06T08:27:43.045Z,2932.00
2018-07-06T08:28:43.109Z,2820.00
2018-07-06T08:29:43.185Z,2772.00
2018-07-06T08:30:43.262Z,2780.00
2018-07-06T08:31:43.314Z,2740.00
2018-07-06T08:32:43.377Z,2800.00
2018-07-06T08:33:43.446Z,2904.00
2018-07-06T08:34:43.527Z,2972.00
2018-07-06T08:35:43.590Z,3236.00
2018-07-06T08:36:43.650Z,3040.00
2018-07-06T08:37:43.715Z,3044.00
2018-07-06T08:38:43.782Z,3224.00
2018-07-06T08:39:43.866Z,3460.00
2018-07-06T08:40:43.922Z,3748.00
2018-07-06T08:41:43.990Z,4148.00
2018-07-06T08:42:44.050Z,4688.00
2018-07-06T08:43:44.114Z,5188.00
2018-07-06T08:44:44.190Z,5552.00
2018-07-06T08:45:44.295Z,4632.00
2018-07-06T08:46:44.323Z,4448.00
2018-07-06T08:47:44.386Z,4312.00
2018-07-06T08:48:44.479Z,3948.00
2018-07-06T08:49:44.526Z,3664.00
2018-07-06T08:50:44.603Z,3572.00
2018-07-06T08:51:44.663Z,3548.00
2018-07-06T08:52:44.731Z,3592.00
2018-07-06T08:53:44.806Z,3648.00
2018-07-06T08:54:44.858Z,3744.00
2018-07-06T08:55:46.688Z,3756.00
2018-07-06T08:56:44.995Z,3672.00
2018-07-06T08:57:45.063Z,3556.00
2018-07-06T08:58:45.202Z,3524.00
2018-07-06T08:59:45.198Z,3620.00
2018-07-06T09:00:45.267Z,3828.00
2018-07-06T09:01:45.447Z,4144.00
2018-07-06T09:02:45.403Z,4480.00
2018-07-06T09:03:45.471Z,4652.00
2018-07-06T09:04:45.551Z,4820.00
2018-07-06T09:05:45.603Z,5088.00
2018-07-06T09:06:45.679Z,5356.00
2018-07-06T09:07:45.747Z,5672.00
2018-07-06T09:08:45.819Z,6264.00
2018-07-06T09:09:45.875Z,7136.00
2018-07-06T09:10:45.943Z,7344.00
2018-07-06T09:11:46.019Z,6876.00
2018-07-06T09:12:46.084Z,6964.00
2018-07-06T09:13:46.147Z,7232.00
2018-07-06T09:14:46.231Z,9380.00
2018-07-06T09:15:46.283Z,7644.00
2018-07-06T09:16:46.368Z,6828.00
2018-07-06T09:17:46.419Z,6440.00
2018-07-06T09:18:46.492Z,6392.00
2018-07-06T09:19:46.697Z,7760.00
2018-07-06T09:20:46.627Z,8408.00
2018-07-06T09:21:46.715Z,11740.00
2018-07-06T09:22:46.770Z,6272.00
2018-07-06T09:23:46.831Z,5756.00
2018-07-06T09:24:46.900Z,5332.00
2018-07-06T09:25:47.151Z,5340.00
2018-07-06T09:26:47.048Z,5760.00
2018-07-06T09:27:47.119Z,6720.00
2018-07-06T09:28:47.176Z,6396.00
2018-07-06T09:29:47.244Z,6328.00
2018-07-06T09:30:47.316Z,6368.00
2018-07-06T09:31:47.396Z,6876.00
2018-07-06T09:32:47.463Z,7508.00
2018-07-06T09:33:47.516Z,8568.00
2018-07-06T09:34:47.596Z,8168.00
2018-07-06T09:35:47.722Z,12968.00
2018-07-06T09:36:47.764Z,8424.00
2018-07-06T09:37:47.804Z,13984.00
2018-07-06T09:38:47.868Z,11784.00
2018-07-06T09:39:47.936Z,14240.00
2018-07-06T09:40:48.020Z,15040.00
2018-07-06T09:41:48.237Z,15008.00
2018-07-06T09:42:48.149Z,15104.00
2018-07-06T09:43:48.216Z,14304.00
2018-07-06T09:44:48.293Z,13536.00
2018-07-06T09:45:48.357Z,10640.00
2018-07-06T09:46:48.435Z,13204.00
2018-07-06T09:47:48.505Z,12988.00
2018-07-06T09:48:48.572Z,13536.00
2018-07-06T09:49:48.645Z,13504.00
2018-07-06T09:50:48.728Z,13408.00
2018-07-06T09:51:48.801Z,13180.00
2018-07-06T09:52:48.861Z,13156.00
2018-07-06T09:53:48.925Z,13180.00
2018-07-06T09:54:49.001Z,13080.00
2018-07-06T09:55:49.069Z,13216.00
2018-07-06T09:56:49.161Z,12348.00
2018-07-06T09:57:49.321Z,11956.00
2018-07-06T09:58:49.285Z,10828.00
2018-07-06T09:59:49.358Z,12128.00
2018-07-06T10:00:49.429Z,11632.00
2018-07-06T10:01:49.501Z,9296.00
2018-07-06T10:02:49.586Z,7432.00
2018-07-06T10:03:49.701Z,9520.00
2018-07-06T10:04:49.718Z,7900.00
2018-07-06T10:05:49.794Z,8288.00
2018-07-06T10:06:49.866Z,8732.00
2018-07-06T10:07:49.950Z,7284.00
2018-07-06T10:08:50.018Z,9184.00
2018-07-06T10:09:50.111Z,6524.00
2018-07-06T10:10:50.164Z,10284.00
2018-07-06T10:11:50.226Z,10320.00
2018-07-06T10:12:50.298Z,10292.00
2018-07-06T10:13:50.670Z,10436.00
2018-07-06T10:14:50.442Z,10784.00
2018-07-06T10:15:50.514Z,10692.00
2018-07-06T10:16:50.586Z,7916.00
2018-07-06T10:17:50.665Z,10012.00
2018-07-06T10:18:50.738Z,7688.00
2018-07-06T10:19:50.855Z,6032.00
2018-07-06T10:20:50.878Z,6112.00
2018-07-06T10:21:51.009Z,6108.00
2018-07-06T10:22:51.022Z,8668.00
2018-07-06T10:23:51.138Z,5812.00
2018-07-06T10:24:51.168Z,5940.00
2018-07-06T10:25:51.257Z,5868.00
2018-07-06T10:26:51.310Z,8168.00
2018-07-06T10:27:51.383Z,9380.00
2018-07-06T10:28:51.466Z,9712.00
2018-07-06T10:29:51.538Z,9728.00
2018-07-06T10:30:51.601Z,9360.00
2018-07-06T10:31:51.667Z,7760.00
2018-07-06T10:32:51.739Z,5732.00
2018-07-06T10:33:51.839Z,7820.00
2018-07-06T10:34:51.903Z,9172.00
2018-07-06T10:35:51.951Z,9596.00
2018-07-06T10:36:52.023Z,9392.00
2018-07-06T10:37:52.091Z,9208.00
2018-07-06T10:38:52.161Z,9084.00
2018-07-06T10:39:52.412Z,9004.00
2018-07-06T10:40:52.306Z,9140.00
2018-07-06T10:41:52.383Z,9036.00
2018-07-06T10:42:52.475Z,8912.00
2018-07-06T10:43:52.519Z,8788.00
2018-07-06T10:44:52.619Z,8728.00
2018-07-06T10:45:52.683Z,8768.00
2018-07-06T10:46:52.807Z,8500.00
2018-07-06T10:47:52.807Z,8464.00
2018-07-06T10:48:52.892Z,6904.00
2018-07-06T10:49:52.964Z,5920.00
2018-07-06T10:50:53.046Z,5880.00
2018-07-06T10:51:53.092Z,7896.00
2018-07-06T10:52:53.164Z,7908.00
2018-07-06T10:53:53.236Z,8132.00
2018-07-06T10:54:53.428Z,8304.00
2018-07-06T10:55:53.396Z,8352.00
2018-07-06T10:56:53.452Z,8396.00
2018-07-06T10:57:53.524Z,8240.00
2018-07-06T10:58:53.592Z,8376.00
2018-07-06T10:59:53.672Z,8452.00
2018-07-06T11:00:53.744Z,8444.00
2018-07-06T11:01:53.809Z,8448.00
2018-07-06T11:02:53.881Z,5468.00
2018-07-06T11:03:53.952Z,7756.00
2018-07-06T11:04:54.083Z,8416.00
2018-07-06T11:05:54.104Z,8496.00
2018-07-06T11:06:54.181Z,8260.00
2018-07-06T11:07:54.236Z,8116.00
2018-07-06T11:08:54.346Z,7896.00
2018-07-06T11:09:54.392Z,7996.00
2018-07-06T11:10:54.457Z,7844.00
2018-07-06T11:11:54.545Z,7816.00
2018-07-06T11:12:54.594Z,7684.00
2018-07-06T11:13:54.667Z,7884.00
2018-07-06T11:14:54.745Z,7836.00
2018-07-06T11:15:54.817Z,7764.00
2018-07-06T11:16:54.885Z,8032.00
2018-07-06T11:17:54.953Z,7684.00
2018-07-06T11:18:55.025Z,7796.00
2018-07-06T11:19:55.117Z,7652.00
2018-07-06T11:20:55.165Z,7896.00
2018-07-06T11:21:55.237Z,7628.00
2018-07-06T11:22:55.325Z,5988.00
2018-07-06T11:23:55.381Z,5848.00
2018-07-06T11:24:55.457Z,5056.00
2018-07-06T11:25:55.529Z,7324.00
2018-07-06T11:26:55.597Z,7332.00
2018-07-06T11:27:55.685Z,7336.00
2018-07-06T11:28:55.737Z,7184.00
2018-07-06T11:29:55.818Z,7196.00
2018-07-06T11:30:55.885Z,7136.00
2018-07-06T11:31:55.954Z,7256.00
2018-07-06T11:32:56.022Z,7196.00
2018-07-06T11:33:56.093Z,7092.00
2018-07-06T11:34:56.189Z,6996.00
2018-07-06T11:35:56.237Z,7008.00
2018-07-06T11:36:56.313Z,6872.00
2018-07-06T11:37:56.425Z,6848.00
2018-07-06T11:38:56.457Z,6892.00
2018-07-06T11:39:56.534Z,6976.00
2018-07-06T11:40:56.601Z,7120.00
2018-07-06T11:41:56.701Z,7048.00
2018-07-06T11:42:56.738Z,6920.00
2018-07-06T11:43:56.810Z,3660.00
2018-07-06T11:44:56.913Z,3760.00
2018-07-06T11:45:56.982Z,4080.00
2018-07-06T11:46:57.022Z,5996.00
2018-07-06T11:47:57.094Z,7536.00
2018-07-06T11:48:57.301Z,5644.00
2018-07-06T11:49:57.394Z,6100.00
2018-07-06T11:50:57.310Z,4908.00
2018-07-06T11:51:57.380Z,7840.00
2018-07-06T11:52:57.450Z,7868.00
2018-07-06T11:53:57.518Z,7964.00
2018-07-06T11:54:57.614Z,8220.00
2018-07-06T11:55:57.717Z,8168.00
2018-07-06T11:56:57.738Z,8000.00
2018-07-06T11:57:57.803Z,8096.00
2018-07-06T11:58:57.875Z,8096.00
2018-07-06T11:59:57.981Z,8020.00
2018-07-06T12:00:58.022Z,8208.00
2018-07-06T12:01:58.095Z,8048.00
2018-07-06T12:02:58.163Z,7884.00
2018-07-06T12:03:58.307Z,4880.00
2018-07-06T12:04:58.322Z,4736.00
2018-07-06T12:05:58.375Z,4736.00
2018-07-06T12:06:58.446Z,7000.00
2018-07-06T12:07:58.519Z,7460.00
2018-07-06T12:08:58.607Z,7464.00
2018-07-06T12:09:58.666Z,7044.00
2018-07-06T12:10:58.754Z,6968.00
2018-07-06T12:11:58.807Z,7548.00
2018-07-06T12:12:58.874Z,4768.00
2018-07-06T12:13:58.951Z,7636.00
2018-07-06T12:14:59.028Z,7524.00
2018-07-06T12:15:59.119Z,4544.00
2018-07-06T12:16:59.175Z,7512.00
2018-07-06T12:17:59.235Z,6188.00
2018-07-06T12:18:59.303Z,7396.00
2018-07-06T12:19:59.391Z,6424.00
2018-07-06T12:20:59.466Z,6796.00
2018-07-06T12:21:59.519Z,7708.00
2018-07-06T12:22:59.592Z,7728.00
2018-07-06T12:23:59.667Z,7508.00
2018-07-06T12:24:59.739Z,5320.00